Time,TemperatureF,DewpointF,PressureIn,WindDirection,WindDirectionDegrees,WindSpeedMPH,WindSpeedGustMPH,Humidity,HourlyPrecipIn,Conditions,Clouds,dailyrainin,SolarRadiationWatts/m^2,SoftwareType,DateUTC
2013-07-24 00:11:00,63.0,48.0,-100.00,ENE,69,6.0,12.0,57,0.00,,,0.00,0.000000,,2013-07-24 05:11:00,
2013-07-24 00:22:00,63.0,48.0,-100.00,ENE,69,6.0,12.0,57,0.00,,,0.00,0.000000,,2013-07-24 05:22:00,
2013-07-24 00:32:00,63.0,48.0,-100.00,ENE,69,6.0,12.0,57,0.00,,,0.00,0.000000,,2013-07-24 05:32:00,
2013-07-24 00:43:00,63.0,48.0,-100.00,ENE,69,6.0,12.0,57,0.00,,,0.00,0.000000,,2013-07-24 05:43:00,
2013-07-24 01:12:00,61.0,48.0,-100.00,ENE,69,4.0,9.0,62,0.00,,,0.00,0.000000,,2013-07-24 06:12:00,
2013-07-24 01:24:00,61.0,48.0,-100.00,ENE,69,4.0,9.0,62,0.00,,,0.00,0.000000,,2013-07-24 06:24:00,
2013-07-24 01:34:00,61.0,48.0,-100.00,ENE,69,4.0,9.0,62,0.00,,,0.00,0.000000,,2013-07-24 06:34:00,
2013-07-24 01:43:00,61.0,48.0,-100.00,ENE,69,4.0,9.0,62,0.00,,,0.00,0.000000,,2013-07-24 06:43:00,
2013-07-24 02:12:00,53.0,48.0,-100.00,West,266,0.0,6.0,84,-99.99,,,0.00,0.000000,,2013-07-24 07:12:00,
2013-07-24 02:22:00,53.0,48.0,-100.00,West,266,0.0,6.0,84,-99.99,,,0.00,0.000000,,2013-07-24 07:22:00,
2013-07-24 02:32:00,53.0,48.0,-100.00,West,266,0.0,6.0,84,-99.99,,,0.00,0.000000,,2013-07-24 07:32:00,
2013-07-24 02:43:00,53.0,48.0,-100.00,West,266,0.0,6.0,84,-99.99,,,0.00,0.000000,,2013-07-24 07:43:00,
2013-07-24 03:12:00,51.0,48.0,-100.00,SW,233,0.0,0.0,88,0.00,,,0.00,0.000000,,2013-07-24 08:12:00,
2013-07-24 03:22:00,51.0,48.0,-100.00,SW,233,0.0,0.0,88,0.00,,,0.00,0.000000,,2013-07-24 08:22:00,
2013-07-24 03:32:00,51.0,48.0,-100.00,SW,233,0.0,0.0,88,0.00,,,0.00,0.000000,,2013-07-24 08:32:00,
2013-07-24 03:43:00,51.0,48.0,-100.00,SW,233,0.0,0.0,88,0.00,,,0.00,0.000000,,2013-07-24 08:43:00,
2013-07-24 04:12:00,50.0,47.0,-100.00,NW,321,0.0,0.0,89,0.00,,,0.00,0.000000,,2013-07-24 09:12:00,
2013-07-24 04:22:00,50.0,47.0,-100.00,NW,321,0.0,0.0,89,0.00,,,0.00,0.000000,,2013-07-24 09:22:00,
2013-07-24 04:32:00,50.0,47.0,-100.00,NW,321,0.0,0.0,89,0.00,,,0.00,0.000000,,2013-07-24 09:32:00,
2013-07-24 04:43:00,50.0,47.0,-100.00,NW,321,0.0,0.0,89,0.00,,,0.00,0.000000,,2013-07-24 09:43:00,
2013-07-24 05:12:00,48.0,46.0,-100.00,WNW,293,0.0,0.0,92,0.00,,,0.00,0.000000,,2013-07-24 10:12:00,
2013-07-24 05:22:00,48.0,46.0,-100.00,WNW,293,0.0,0.0,92,0.00,,,0.00,0.000000,,2013-07-24 10:22:00,
2013-07-24 05:33:00,48.0,46.0,-100.00,WNW,293,0.0,0.0,92,0.00,,,0.00,0.000000,,2013-07-24 10:33:00,
2013-07-24 05:43:00,48.0,46.0,-100.00,WNW,293,0.0,0.0,92,0.00,,,0.00,0.000000,,2013-07-24 10:43:00,
2013-07-24 06:12:00,47.0,45.0,-100.00,NNW,337,0.0,0.0,94,0.00,,,0.00,1.000000,,2013-07-24 11:12:00,
2013-07-24 06:22:00,47.0,45.0,-100.00,NNW,337,0.0,0.0,94,0.00,,,0.00,1.000000,,2013-07-24 11:22:00,
2013-07-24 06:32:00,47.0,45.0,-100.00,NNW,337,0.0,0.0,94,0.00,,,0.00,1.000000,,2013-07-24 11:32:00,
2013-07-24 06:43:00,47.0,45.0,-100.00,NNW,337,0.0,0.0,94,0.00,,,0.00,1.000000,,2013-07-24 11:43:00,
2013-07-24 07:12:00,49.0,47.0,-100.00,ENE,75,0.0,0.0,93,0.00,,,0.00,26.000000,,2013-07-24 12:12:00,
2013-07-24 07:22:00,49.0,47.0,-100.00,ENE,75,0.0,0.0,93,0.00,,,0.00,26.000000,,2013-07-24 12:22:00,
2013-07-24 07:32:00,49.0,47.0,-100.00,ENE,75,0.0,0.0,93,0.00,,,0.00,26.000000,,2013-07-24 12:32:00,
2013-07-24 07:42:00,49.0,47.0,-100.00,ENE,75,0.0,0.0,93,0.00,,,0.00,26.000000,,2013-07-24 12:42:00,
2013-07-24 08:12:00,58.0,52.0,-100.00,NNW,336,1.0,3.0,80,0.00,,,0.00,179.000000,,2013-07-24 13:12:00,
2013-07-24 08:22:00,58.0,52.0,-100.00,NNW,336,1.0,3.0,80,0.00,,,0.00,179.000000,,2013-07-24 13:22:00,
2013-07-24 08:32:00,58.0,52.0,-100.00,NNW,336,1.0,3.0,80,0.00,,,0.00,179.000000,,2013-07-24 13:32:00,
2013-07-24 08:43:00,58.0,52.0,-100.00,NNW,336,1.0,3.0,80,0.00,,,0.00,179.000000,,2013-07-24 13:43:00,
2013-07-24 09:12:00,63.0,53.0,-100.00,West,279,4.0,6.0,70,0.00,,,0.00,342.000000,,2013-07-24 14:12:00,
2013-07-24 09:22:00,63.0,53.0,-100.00,West,279,4.0,6.0,70,0.00,,,0.00,342.000000,,2013-07-24 14:22:00,
2013-07-24 09:32:00,63.0,53.0,-100.00,West,279,4.0,6.0,70,0.00,,,0.00,342.000000,,2013-07-24 14:32:00,
2013-07-24 09:43:00,63.0,53.0,-100.00,West,279,4.0,6.0,70,0.00,,,0.00,342.000000,,2013-07-24 14:43:00,
2013-07-24 10:12:00,67.0,54.0,-100.00,SSW,202,4.0,7.0,63,0.00,,,0.00,392.000000,,2013-07-24 15:12:00,
2013-07-24 10:22:00,67.0,54.0,-100.00,SSW,202,4.0,7.0,63,0.00,,,0.00,392.000000,,2013-07-24 15:22:00,
2013-07-24 10:33:00,67.0,54.0,-100.00,SSW,202,4.0,7.0,63,0.00,,,0.00,392.000000,,2013-07-24 15:33:00,
2013-07-24 10:43:00,67.0,54.0,-100.00,SSW,202,4.0,7.0,63,0.00,,,0.00,392.000000,,2013-07-24 15:43:00,
2013-07-24 11:12:00,70.0,50.0,-100.00,South,188,4.0,9.0,49,0.00,,,0.00,777.000000,,2013-07-24 16:12:00,
2013-07-24 11:22:00,70.0,50.0,-100.00,South,188,4.0,9.0,49,0.00,,,0.00,777.000000,,2013-07-24 16:22:00,
2013-07-24 11:32:00,70.0,50.0,-100.00,South,188,4.0,9.0,49,0.00,,,0.00,777.000000,,2013-07-24 16:32:00,
2013-07-24 11:43:00,70.0,50.0,-100.00,South,188,4.0,9.0,49,0.00,,,0.00,777.000000,,2013-07-24 16:43:00,
2013-07-24 12:12:00,74.0,49.0,-100.00,South,190,3.0,10.0,42,0.00,,,0.00,738.000000,,2013-07-24 17:12:00,
2013-07-24 12:22:00,74.0,49.0,-100.00,South,190,3.0,10.0,42,0.00,,,0.00,738.000000,,2013-07-24 17:22:00,
2013-07-24 12:33:00,74.0,49.0,-100.00,South,190,3.0,10.0,42,0.00,,,0.00,738.000000,,2013-07-24 17:33:00,
2013-07-24 12:43:00,74.0,49.0,-100.00,South,190,3.0,10.0,42,0.00,,,0.00,738.000000,,2013-07-24 17:43:00,
2013-07-24 13:12:00,73.0,49.0,-100.00,East,81,3.0,10.0,42,0.00,,,0.00,765.000000,,2013-07-24 18:12:00,
2013-07-24 13:22:00,73.0,49.0,-100.00,East,81,3.0,10.0,42,0.00,,,0.00,765.000000,,2013-07-24 18:22:00,
2013-07-24 13:33:00,73.0,49.0,-100.00,East,81,3.0,10.0,42,0.00,,,0.00,765.000000,,2013-07-24 18:33:00,
2013-07-24 13:43:00,73.0,49.0,-100.00,East,81,3.0,10.0,42,0.00,,,0.00,765.000000,,2013-07-24 18:43:00,
2013-07-24 14:12:00,74.0,47.0,-100.00,ESE,111,4.0,10.0,39,0.00,,,0.00,746.000000,,2013-07-24 19:12:00,
2013-07-24 14:22:00,74.0,47.0,-100.00,ESE,111,4.0,10.0,39,0.00,,,0.00,746.000000,,2013-07-24 19:22:00,
2013-07-24 14:32:00,74.0,47.0,-100.00,ESE,111,4.0,10.0,39,0.00,,,0.00,746.000000,,2013-07-24 19:32:00,
2013-07-24 14:43:00,74.0,47.0,-100.00,ESE,111,4.0,10.0,39,0.00,,,0.00,746.000000,,2013-07-24 19:43:00,
2013-07-24 15:13:00,71.0,48.0,-100.00,ENE,72,3.0,8.0,44,0.00,,,0.00,283.000000,,2013-07-24 20:13:00,
2013-07-24 15:23:00,71.0,48.0,-100.00,ENE,72,3.0,8.0,44,0.00,,,0.00,283.000000,,2013-07-24 20:23:00,
2013-07-24 15:32:00,71.0,48.0,-100.00,ENE,72,3.0,8.0,44,0.00,,,0.00,283.000000,,2013-07-24 20:32:00,
2013-07-24 15:43:00,71.0,48.0,-100.00,ENE,72,3.0,8.0,44,0.00,,,0.00,283.000000,,2013-07-24 20:43:00,
2013-07-24 16:12:00,77.0,49.0,-100.00,South,170,5.0,10.0,38,0.00,,,0.00,870.000000,,2013-07-24 21:12:00,
2013-07-24 16:22:00,77.0,49.0,-100.00,South,170,5.0,10.0,38,0.00,,,0.00,870.000000,,2013-07-24 21:22:00,
2013-07-24 16:32:00,77.0,49.0,-100.00,South,170,5.0,10.0,38,0.00,,,0.00,870.000000,,2013-07-24 21:32:00,
2013-07-24 16:43:00,77.0,49.0,-100.00,South,170,5.0,10.0,38,0.00,,,0.00,870.000000,,2013-07-24 21:43:00,
2013-07-24 17:12:00,76.0,48.0,-100.00,SSE,147,4.0,11.0,37,0.00,,,0.00,508.000000,,2013-07-24 22:12:00,
2013-07-24 17:22:00,76.0,48.0,-100.00,SSE,147,4.0,11.0,37,0.00,,,0.00,508.000000,,2013-07-24 22:22:00,
2013-07-24 17:32:00,76.0,48.0,-100.00,SSE,147,4.0,11.0,37,0.00,,,0.00,508.000000,,2013-07-24 22:32:00,
2013-07-24 17:43:00,76.0,48.0,-100.00,SSE,147,4.0,11.0,37,0.00,,,0.00,508.000000,,2013-07-24 22:43:00,
2013-07-24 18:12:00,78.0,48.0,-100.00,SSW,195,5.0,12.0,35,0.00,,,0.00,561.000000,,2013-07-24 23:12:00,
2013-07-24 18:22:00,78.0,48.0,-100.00,SSW,195,5.0,12.0,35,0.00,,,0.00,561.000000,,2013-07-24 23:22:00,
2013-07-24 18:32:00,78.0,48.0,-100.00,SSW,195,5.0,12.0,35,0.00,,,0.00,561.000000,,2013-07-24 23:32:00,
2013-07-24 18:43:00,78.0,48.0,-100.00,SSW,195,5.0,12.0,35,0.00,,,0.00,561.000000,,2013-07-24 23:43:00,
2013-07-24 19:12:00,72.0,51.0,-100.00,SW,224,5.0,11.0,47,0.00,,,-99.99,218.000000,,2013-07-25 00:12:00,
2013-07-24 19:22:00,72.0,51.0,-100.00,SW,224,5.0,11.0,47,0.00,,,-99.99,218.000000,,2013-07-25 00:22:00,
2013-07-24 19:33:00,72.0,51.0,-100.00,SW,224,5.0,11.0,47,0.00,,,-99.99,218.000000,,2013-07-25 00:33:00,
2013-07-24 19:43:00,72.0,51.0,-100.00,SW,224,5.0,11.0,47,0.00,,,-99.99,218.000000,,2013-07-25 00:43:00,
2013-07-24 21:12:00,68.0,54.0,-100.00,South,191,3.0,4.0,61,-99.99,,,0.00,10.000000,,2013-07-25 02:12:00,
2013-07-24 21:22:00,68.0,54.0,-100.00,South,191,3.0,4.0,61,-99.99,,,0.00,10.000000,,2013-07-25 02:22:00,
2013-07-24 21:33:00,68.0,54.0,-100.00,South,191,3.0,4.0,61,-99.99,,,0.00,10.000000,,2013-07-25 02:33:00,
2013-07-24 21:43:00,68.0,54.0,-100.00,South,191,3.0,4.0,61,-99.99,,,0.00,10.000000,,2013-07-25 02:43:00,
2013-07-24 22:16:00,64.0,55.0,-100.00,South,173,3.0,5.0,72,0.00,,,0.00,0.000000,,2013-07-25 03:16:00,
2013-07-24 22:24:00,64.0,55.0,-100.00,South,173,3.0,5.0,72,0.00,,,0.00,0.000000,,2013-07-25 03:24:00,
2013-07-24 22:37:00,64.0,55.0,-100.00,South,173,3.0,5.0,72,0.00,,,0.00,0.000000,,2013-07-25 03:37:00,
2013-07-24 22:44:00,64.0,55.0,-100.00,South,173,3.0,5.0,72,0.00,,,0.00,0.000000,,2013-07-25 03:44:00,
2013-07-24 23:12:00,61.0,54.0,-100.00,South,186,3.0,5.0,77,0.00,,,0.00,0.000000,,2013-07-25 04:12:00,
2013-07-24 23:22:00,61.0,54.0,-100.00,South,186,3.0,5.0,77,0.00,,,0.00,0.000000,,2013-07-25 04:22:00,
2013-07-24 23:32:00,61.0,54.0,-100.00,South,186,3.0,5.0,77,0.00,,,0.00,0.000000,,2013-07-25 04:32:00,
2013-07-24 23:43:00,61.0,54.0,-100.00,South,186,3.0,5.0,77,0.00,,,0.00,0.000000,,2013-07-25 04:43:00,